Walterboro, SC (29488)

4:20 AM EST on March 05, 2015 (GMT -0500)
Lowcountry Regional | Change Station
CLOSE
Current Station
Airport
Location: Walterboro,
Elevation: 102 ft
Nearby Weather Stations
Active Advisory: Flood Warning Active Notice: Record Report

Elev 102 ft 32.92 °N, 80.64 °W | Updated 5 minutes ago

Clear
Clear
63 °F
Feels Like 63 °F
N
5
Wind Variable Wind from SW

Today
High -- | Low -- °F
--% Chance of Precip.
Yesterday
High -- | Low -- °F
Precip. -- in
6:45 AM 6:22 PM
Full, 100% visible
Pressure 29.98 in
Visibility 10.0 miles
Clouds Clear
Dew Point 63 °F
Humidity 100%
Rainfall 0.00 in
Snow Depth Not available.
UV 0 out of 12
Pollen 9.40 out of 12
Air Quality Not available.
Flu Activity Not available.
METAR KRBW 050915Z AUTO 22004KT 10SM CLR 17/17 A2998 RMK AO2

More Conditions Fewer Conditions

Pressure 29.98 in
Visibility 10.0 miles
Clouds Clear
Dew Point 63 °F
Humidity 100%
Rainfall 0.00 in
Snow Depth Not available.
UV 0 out of 12
Pollen 9.40 out of 12
Air Quality Not available.
Flu Activity Not available.
METAR KRBW 050915Z AUTO 22004KT 10SM CLR 17/17 A2998 RMK AO2

More Conditions Fewer Conditions

10-Day Weather Forecast

Almanac

Astronomy

Mar. 05, 2015 Rise Set
Actual Time
Civil Twilight
Nautical Twilight
Astronomical Twilight
Moon
Length of Visible Light
Length of Day
Tomorrow will be .
, % of the Moon is Illuminated

Today's Extremes

State Highs State Lows

Community

WunderPhotos

Upload Photos

1,802,704 photos uploaded!

WunderBlogs® & News

Nearby

Air Quality

  Air Quality AQ Index Pollutant
Not available.

Snow Depth

Station Depth Elevation

Earthquake Activity

City Distance Mag. Time & Date
Minimum magnitude displayed is 2.5.

Coastal Water Temperatures

Place Temperature

Nearby Weather Stations

Flood Warning
Statement as of 10:32 PM EST on March 04, 2015

The Flood Warning continues for
the edisto river near Givhans Ferry.
* At 9 PM Wednesday the stage was 11.3 feet.
* Flood stage is 10.0 feet.
* Minor flooding is occurring.
* Forecast, the river is expected to drop below flood stage early
Monday morning.
* At 11.0 feet, Weeks Landing in Canadys is no longer accessible.


Lat... Lon 3303 8055 3310 8053 3308 8036 3290 8037
          3290 8045 3302 8044